METAR Data
IDs: Format: Raw Decoded Include TAF

Data at: 1247 UTC 20 Oct 2021

KAWO 201156Z AUTO 13005KT 10SM -RA BKN080 OVC100 11/08 A2965 RMK AO2 RAB08E35B55 SLP043 6//// 7//// T01060083 10106 20067 53019 PNO $